Friday, July 25, 2014
23:10 UTC
  |  Log In   |  Register Free
Airport Search:

Livermore Municipal Airport
(KLVK)

Livermore Municipal Airport Diagram
No Airport Diagram Available

FAA data valid effective July 24, 2014 until September 18, 2014 (unless otherwise noted).

 
 
 
 
 
 
 
 
 
 
 
 
 
 

Current Aviation Weather for Livermore Municipal Airport (KLVK)

The most recent METAR observation for KLVK was updated at: 2153 UTC
METAR Summary (Translated METAR)
KLVK
252153Z 00000KT 10SM CLR 37/04 A2982 RMK AO2 SLP093 T03670044
KHWD
(14.5 nm SW from KLVK)
252154Z 29012KT 10SM CLR 34/13 A2983 RMK AO2 SLP111 T03390133
TAF Summary (Translated TAF)
KOAK
(19.1 nm NW from KLVK)
251720Z 2518/2624 26006KT P6SM SKC FM252100 30012KT P6SM SKC FM260400 31005KT P6SM SKC
  Airport Weather Conditions for KLVK

 Current Weather at LVK
98° F
Fair
North winds at 0.0 mph
LVK NOAA Radar

Pressure: 29.82 in
Humidity: 13%
Wind: Calm
Dew Point: 39.9°F
Visibility: 10.00 mi


Airport Weather Forecast for KLVK

Translated METAR and TAF for KLVK
Translated METAR for KLVK (2303 UTC 25 July 2014)
found at http://aviationweather.gov/adds/metars/
 
METAR text: KLVK 252253Z 23009KT 10SM CLR 38/03 A2980 RMK AO2 SLP087 T03830033
Conditions at: KLVK (LIVERMORE , CA, US) observed 2253 UTC 25 July 2014
Temperature: 38.3°C (101°F)
Dewpoint: 3.3°C (38°F) [RH = 12%]
Pressure (altimeter): 29.80 inches Hg (1009.2 mb)
[Sea-level pressure: 1008.7 mb]
Winds: from the SW (230 degrees) at 10 MPH (9 knots; 4.7 m/s)
Visibility: 10 or more miles (16+ km)
Ceiling: at least 12,000 feet AGL
Clouds: sky clear below 12,000 feet AGL
Weather: no significant weather observed at this time
Translated TAF for KLVK

There is no translated TAF available for this airport

Find All Airport Services Find A Hotel Find A Rental Car Find A Golf Course Find A Restaurant $100 Hamburger



FBO's on the Field
FBO Company Facility Photos Services Transportation Aviation Fuel Prices: Prices include tax
Catering Weather Repair Courtesy Rental Type 100LL JetA JetA+ MOGAS 8087
 
Livermore Municipal Airport

This FBO has not yet been rated
FS:Ascent
Last Updated: Jul-22
Login to update fuel prices
SS:
Contact Livermore Municipal AirportMore FBO Information
 
Add another FBO Facility Photos Catering Weather Repair Courtesy Rental Type 100LL JetA JetA+ MOGAS 8087
Services Transportation Aviation Fuel Prices: Prices include tax


GlobalAir.com Airport Resource Center model-print
model-print
model-print
model-print